Flight Track Log - Related Links

Times and Time Zones

All times are in EDT time to prevent confusion due to time zone crossing. See the RPA3253 flight status page for this flight to view local times or setup timezone preferences in your user account.

Time Position Orientation Groundspeed Altitude Reporting Facility
EDT Latitude Longitude Course Direction KTS MPH feet Rate Location/Type
Fri 10:40:29 PM 35.2331 -80.9594 251° West 150 173 1,600  Level Atlanta Center
Fri 10:41:00 PM 35.2544 -80.9714 335° Northwest 175 201 2,100 1,696 Climbing Atlanta Center
Fri 10:42:01 PM 35.2894 -81.0414 302° West 276 318 4,200 2,598 Climbing Atlanta Center
Fri 10:43:00 PM 35.1976 -81.2463 199° South  Level FlightAware Approximate
Fri 10:43:07 PM 35.2497 -81.1267 240° Southwest 299 344 7,600  Level Atlanta Center
Fri 10:44:00 PM 35.0970 -81.2799 192° South  Level FlightAware Approximate
Fri 10:44:08 PM 35.2058 -81.2097 237° Southwest 301 346 10,300  Level Atlanta Center
Fri 10:45:00 PM 35.0535 -81.3877 251° West  Level FlightAware Approximate
Fri 10:45:20 PM 35.1397 -81.3314 236° Southwest 346 398 12,500  Level Atlanta Center
Fri 10:46:20 PM 35.0914 -81.4192 236° Southwest 356 410 14,100 1,650 Climbing Atlanta Center
Fri 10:47:20 PM 35.0333 -81.5275 237° Southwest 368 423 15,800 1,900 Climbing Atlanta Center
Fri 10:48:20 PM 34.9833 -81.6406 242° Southwest 387 445 17,900 2,000 Climbing Atlanta Center
Fri 10:49:20 PM 34.9461 -81.7633 250° West 387 445 19,800 1,750 Climbing Atlanta Center
Fri 10:50:20 PM 34.8917 -81.8786 240° Southwest 387 445 21,400 1,450 Climbing Atlanta Center
Fri 10:51:20 PM 34.8269 -81.9917 235° Southwest 398 458 22,700 1,300 Climbing Atlanta Center
Fri 10:52:20 PM 34.7600 -82.1097 235° Southwest 415 478 24,000 1,350 Climbing Atlanta Center
Fri 10:53:20 PM 34.6931 -82.2275 235° Southwest 428 493 25,400 1,400 Climbing Atlanta Center
Fri 10:54:20 PM 34.6278 -82.3450 236° Southwest 434 499 26,800 1,200 Climbing Atlanta Center
Fri 10:55:20 PM 34.5583 -82.4622 234° Southwest 434 499 27,800 950 Climbing Atlanta Center
Fri 10:56:20 PM 34.4786 -82.5950 234° Southwest 434 499 28,700 1,100 Climbing Atlanta Center
Fri 10:57:20 PM 34.4069 -82.7169 235° Southwest 439 505 30,000 1,200 Climbing Atlanta Center
Fri 10:58:20 PM 34.3394 -82.8364 236° Southwest 439 505 31,100 1,100 Climbing Atlanta Center
Fri 10:59:20 PM 34.2694 -82.9578 235° Southwest 439 505 32,200 1,100 Climbing Atlanta Center
Fri 11:00:20 PM 34.2017 -83.0744 235° Southwest 439 505 33,300 900 Climbing Atlanta Center
Fri 11:01:20 PM 34.1397 -83.1806 235° Southwest 439 505 34,000 350 Climbing Atlanta Center
Fri 11:02:20 PM 34.0717 -83.3014 236° Southwest 433 498 34,000  Level Atlanta Center
Fri 11:03:20 PM 33.9972 -83.4250 234° Southwest 445 512 34,000  Level Atlanta Center
Fri 11:04:20 PM 33.9247 -83.5456 234° Southwest 450 518 34,000  Level Atlanta Center
Fri 11:05:20 PM 33.8522 -83.6686 235° Southwest 455 524 34,000  Level Atlanta Center
Fri 11:06:20 PM 33.7711 -83.8064 235° Southwest 455 524 34,000  Level Atlanta Center
Fri 11:07:20 PM 33.6961 -83.9289 234° Southwest 460 529 34,000  Level Atlanta Center
Fri 11:08:20 PM 33.6231 -84.0539 235° Southwest 460 529 34,000  Level Atlanta Center
Fri 11:09:20 PM 33.5478 -84.1758 233° Southwest 460 529 34,000  Level Atlanta Center
Fri 11:10:20 PM 33.4767 -84.3003 236° Southwest 465 535 34,000  Level Atlanta Center
Fri 11:11:20 PM 33.4033 -84.4219 234° Southwest 465 535 34,000  Level Atlanta Center
Fri 11:12:20 PM 33.3361 -84.5311 234° Southwest 465 535 34,000  Level Atlanta Center
Fri 11:13:20 PM 33.2625 -84.6575 235° Southwest 460 529 34,000  Level Atlanta Center
Fri 11:14:20 PM 33.1889 -84.7786 234° Southwest 460 529 34,000  Level Atlanta Center
Fri 11:15:20 PM 33.1169 -84.8969 234° Southwest 455 524 34,000  Level Atlanta Center
Fri 11:16:20 PM 33.0453 -85.0153 234° Southwest 450 518 34,000  Level Atlanta Center
Fri 11:17:20 PM 32.9692 -85.1356 233° Southwest 455 524 34,000  Level Atlanta Center
Fri 11:18:20 PM 32.8886 -85.2608 233° Southwest 449 517 34,000  Level Atlanta Center
Fri 11:19:20 PM 32.8164 -85.3811 234° Southwest 449 517 34,000  Level Atlanta Center
Fri 11:20:20 PM 32.7419 -85.4983 233° Southwest 449 517 34,000  Level Atlanta Center
Fri 11:21:20 PM 32.6697 -85.6131 233° Southwest 449 517 34,000  Level Atlanta Center
Fri 11:22:20 PM 32.5950 -85.7325 233° Southwest 449 517 34,000  Level Atlanta Center
Fri 11:23:20 PM 32.5222 -85.8494 234° Southwest 449 517 34,000  Level Atlanta Center
Fri 11:24:20 PM 32.4497 -85.9636 233° Southwest 463 533 34,000  Level Atlanta Center
Fri 11:25:20 PM 32.3769 -86.0778 233° Southwest 458 527 34,000  Level Atlanta Center
Fri 11:26:20 PM 32.3017 -86.1964 233° Southwest 458 527 34,000  Level Atlanta Center
Fri 11:27:20 PM 32.2203 -86.3244 233° Southwest 449 517 34,000  Level Atlanta Center
Fri 11:28:20 PM 32.1511 -86.4453 236° Southwest 454 522 34,000  Level Atlanta Center
Fri 11:29:20 PM 32.0778 -86.5661 234° Southwest 454 522 34,000  Level Atlanta Center
Fri 11:30:20 PM 32.0044 -86.6792 233° Southwest 444 511 34,000  Level Atlanta Center
Fri 11:31:20 PM 31.9311 -86.7822 230° Southwest 451 519 34,000  Level Atlanta Center
Fri 11:32:20 PM 31.8556 -86.8972 232° Southwest 457 526 34,000  Level Atlanta Center
Fri 11:33:20 PM 31.7775 -87.0169 233° Southwest 457 526 34,000  Level Atlanta Center
Fri 11:34:20 PM 31.7039 -87.1314 233° Southwest 457 526 34,000  Level Atlanta Center
Fri 11:36:16 PM 31.5594 -87.3508 232° Southwest 452 520 34,000  Level Houston Center
Fri 11:37:17 PM 31.4842 -87.4658 233° Southwest 447 514 34,000  Level Houston Center
Fri 11:38:18 PM 31.4092 -87.5819 233° Southwest 447 514 34,000  Level Houston Center
Fri 11:39:18 PM 31.3183 -87.7192 232° Southwest 445 512 34,000  Level Houston Center
Fri 11:40:19 PM 31.2431 -87.8339 233° Southwest 445 512 34,000  Level Houston Center
Fri 11:41:20 PM 31.1642 -87.9489 231° Southwest 451 519 34,000  Level Houston Center
Fri 11:42:21 PM 31.0872 -88.0642 232° Southwest 451 519 34,000 -393 Level Houston Center
Fri 11:43:22 PM 31.0117 -88.1786 232° Southwest 447 514 33,200 -992 Descending Houston Center
Fri 11:44:22 PM 30.9356 -88.2936 232° Southwest 447 514 32,000 -1,190 Descending Houston Center
Fri 11:45:23 PM 30.8564 -88.4108 232° Southwest 455 524 30,800 -1,180 Descending Houston Center
Fri 11:46:24 PM 30.7764 -88.5292 232° Southwest 462 532 29,600 -1,230 Descending Houston Center
Fri 11:47:25 PM 30.6869 -88.6606 232° Southwest 475 547 28,300 -1,289 Descending Houston Center
Fri 11:48:25 PM 30.6072 -88.7786 232° Southwest 469 540 27,000 -1,438 Descending Houston Center
Fri 11:49:26 PM 30.5294 -88.8933 232° Southwest 454 522 25,400 -1,869 Descending Houston Center
Fri 11:50:27 PM 30.4608 -88.9964 232° Southwest 442 509 23,200 -2,318 Descending Houston Center
Fri 11:51:38 PM 30.3867 -89.1358 238° Southwest 427 491 20,300 -2,331 Descending Houston Center
Fri 11:52:28 PM 30.3481 -89.2319 245° Southwest 413 475 18,500 -2,301 Descending Houston Center
Fri 11:52:51 PM 30.3297 -89.2881 249° West 408 470 17,500 -2,164 Descending Houston Center
Fri 11:53:29 PM 30.3047 -89.3511 245° Southwest 405 466 16,300 -2,300 Descending Houston Center
Fri 11:53:51 PM 30.2822 -89.4133 247° West 390 449 15,200 -2,100 Descending Houston Center
Fri 11:54:29 PM 30.2625 -89.4656 246° West 390 449 14,200 -2,066 Descending Houston Center
Fri 11:54:52 PM 30.2406 -89.5283 248° West 386 444 13,100 -2,164 Descending Houston Center
Fri 11:55:30 PM 30.2197 -89.5811 245° Southwest 388 447 12,000 -2,000 Descending Houston Center
Fri 11:55:52 PM 30.1983 -89.6386 247° West 376 433 11,100 -1,000 Descending Houston Center
Fri 11:56:30 PM 30.1769 -89.6889 244° Southwest 371 427 11,000 -269 Descending Houston Center
Fri 11:56:59 PM 30.1411 -89.7375 230° Southwest 332 382 10,800 -787 Descending Houston Center
Fri 11:57:31 PM 30.1175 -89.7678 228° Southwest 322 371 10,200 -1,770 Descending Houston Center
Fri 11:58:00 PM 30.0853 -89.8122 230° Southwest 300 345 9,000 -1,869 Descending Houston Center
Fri 11:58:32 PM 30.0606 -89.8431 227° Southwest 310 357 8,300 -1,600 Descending Houston Center
Fri 11:59:00 PM 30.0269 -89.8844 227° Southwest 304 350 7,400 -1,400 Descending Houston Center
Fri 11:59:32 PM 30.0044 -89.9153 230° Southwest 304 350 6,900 -1,377 Descending Houston Center
Sat 12:00:01 AM 29.9708 -89.9589 228° Southwest 286 329 6,000 -1,574 Descending Houston Center
Sat 12:00:33 AM 29.9606 -89.9881 248° West 291 335 5,300 -1,574 Descending Houston Center
Sat 12:01:02 AM 29.9422 -90.0417 248° West 273 314 4,400 -1,600 Descending Houston Center
Sat 12:01:33 AM 29.9353 -90.0708 255° West 275 316 3,700 -1,900 Descending Houston Center
Sat 12:02:02 AM 29.9178 -90.1242 249° West 274 315 2,500 -1,377 Descending Houston Center
Sat 12:02:34 AM 29.9106 -90.1528 254° West 271 312 2,300 -393 Descending Houston Center
Sat 12:03:03 AM 29.8972 -90.1994 252° West 234 269 2,100 -400 Descending Houston Center
Sat 12:03:34 AM 29.8933 -90.2247 260° West 251 289 1,900 -100 Descending Houston Center
Sat 12:04:03 AM 29.9072 -90.2614 294° West 192 221 2,000 207 Climbing Houston Center

Login

Don't have an account? Register now (free) for customized features, flight alerts, and more!